Time;durP1;ratioP1;P1;durP2;ratioP2;P2;SDS_P1;SDS_P2;PMS_P1;PMS_P2;Temp;Humidity;BMP_temperature;BMP_pressure;BME280_temperature;BME280_humidity;BME280_pressure;Samples;Min_cycle;Max_cycle;Signal;HPM_P1;HPM_P2
2023/03/06 00:01:53;;;;;;;;;;;;;;;3.00;73.68;97564.44;7371574;19;19927;-71
2023/03/06 00:04:19;;;;;;;;;;;;;;;3.01;73.67;97558.28;7377065;19;19946;-71
2023/03/06 00:06:46;;;;;;;;;;;;;;;2.95;73.77;97558.75;7380296;19;20329;-71
2023/03/06 00:09:13;;;;;;;;;;;;;;;2.95;73.41;97549.16;7380538;19;19919;-71
2023/03/06 00:11:39;;;;;;;;;;;;;;;2.96;73.38;97557.81;7373898;19;20306;-71
2023/03/06 00:14:06;;;;;;;;;;;;;;;2.98;73.65;97554.13;7368735;19;19943;-71
2023/03/06 00:16:32;;;;;;;;;;;;;;;3.00;73.74;97543.53;7377370;19;19942;-71
2023/03/06 00:18:59;;;;;;;;;;;;;;;2.97;73.65;97551.63;7370612;19;19918;-71
2023/03/06 00:21:25;;;;;;;;;;;;;;;2.98;73.89;97548.91;7378459;19;19915;-71
2023/03/06 00:23:52;;;;;;;;;;;;;;;2.96;73.53;97536.91;7371939;19;20277;-71
2023/03/06 00:26:18;;;;;;;;;;;;;;;2.93;73.24;97543.22;7378243;19;19939;-71
2023/03/06 00:28:45;;;;;;;;;;;;;;;2.94;73.14;97533.59;7376499;19;20314;-71
2023/03/06 00:31:12;;;;;;;;;;;;;;;2.92;73.14;97532.91;7367734;19;19926;-71
2023/03/06 00:33:38;;;;;;;;;;;;;;;2.91;73.46;97536.47;7376572;19;19914;-71
2023/03/06 00:36:05;;;;;;;;;;;;;;;2.89;73.38;97528.75;7370754;19;19914;-71
2023/03/06 00:38:34;;;;;;;;;;;;;;;2.89;73.69;97525.31;7378681;19;19927;-71
2023/03/06 00:41:10;;;;;;;;;;;;;;;2.86;73.84;97524.63;7375198;19;20371;-72
2023/03/06 00:43:37;;;;;;;;;;;;;;;2.87;73.77;97520.25;7379354;19;19923;-71
2023/03/06 00:46:06;;;;;;;;;;;;;;;2.89;74.30;97518.31;7370648;19;19949;-71
2023/03/06 00:48:33;;;;;;;;;;;;;;;2.89;74.04;97523.53;7379873;19;20411;-71
2023/03/06 00:51:00;;;;;;;;;;;;;;;2.86;74.14;97519.38;7369854;19;20347;-71
2023/03/06 00:53:26;;;;;;;;;;;;;;;2.83;74.18;97513.59;7372466;19;19950;-71
2023/03/06 00:55:53;;;;;;;;;;;;;;;2.79;73.92;97512.19;7369794;19;19918;-71
2023/03/06 00:58:19;;;;;;;;;;;;;;;2.70;73.79;97513.78;7379878;19;19927;-71
2023/03/06 01:00:47;;;;;;;;;;;;;;;2.69;74.16;97511.31;7379330;19;19919;-71
2023/03/06 01:03:14;;;;;;;;;;;;;;;2.68;74.37;97515.69;7373285;19;20328;-71
2023/03/06 01:05:41;;;;;;;;;;;;;;;2.68;74.27;97501.81;7376917;19;19927;-71
2023/03/06 01:08:07;;;;;;;;;;;;;;;2.60;74.02;97503.28;7370292;19;19911;-72
2023/03/06 01:10:37;;;;;;;;;;;;;;;2.62;74.49;97485.69;7373366;19;19939;-71
2023/03/06 01:13:03;;;;;;;;;;;;;;;2.61;74.54;97499.72;7371373;19;19911;-71
2023/03/06 01:15:30;;;;;;;;;;;;;;;2.61;74.93;97491.06;7376429;19;19919;-71
2023/03/06 01:17:56;;;;;;;;;;;;;;;2.53;74.73;97494.31;7371400;19;19919;-72
2023/03/06 01:20:23;;;;;;;;;;;;;;;2.56;75.24;97486.22;7377662;19;19923;-71
2023/03/06 01:22:49;;;;;;;;;;;;;;;2.54;75.22;97490.72;7377323;19;19959;-71
2023/03/06 01:25:16;;;;;;;;;;;;;;;2.48;74.48;97487.81;7369754;19;19919;-71
2023/03/06 01:27:42;;;;;;;;;;;;;;;2.46;74.59;97490.53;7377396;19;19946;-71
2023/03/06 01:30:09;;;;;;;;;;;;;;;2.47;74.72;97481.75;7372534;19;20277;-72
2023/03/06 01:32:36;;;;;;;;;;;;;;;2.44;74.82;97482.00;7378946;19;20339;-71
2023/03/06 01:35:03;;;;;;;;;;;;;;;2.43;75.40;97482.97;7368422;19;19971;-71
2023/03/06 01:37:30;;;;;;;;;;;;;;;2.42;75.28;97481.28;7376621;19;19922;-71
2023/03/06 01:39:56;;;;;;;;;;;;;;;2.38;75.18;97477.31;7371817;19;19943;-71
2023/03/06 01:42:23;;;;;;;;;;;;;;;2.33;75.16;97472.44;7375012;19;19923;-71
2023/03/06 01:45:02;;;;;;;;;;;;;;;2.33;74.97;97474.25;7372778;19;19914;-71
2023/03/06 01:47:28;;;;;;;;;;;;;;;2.32;74.35;97467.38;7373403;19;19923;-71
2023/03/06 01:49:56;;;;;;;;;;;;;;;2.39;74.83;97460.66;7373296;19;19938;-71
2023/03/06 01:52:25;;;;;;;;;;;;;;;2.42;74.88;97461.25;7374637;19;19923;-71
2023/03/06 01:54:52;;;;;;;;;;;;;;;2.47;75.25;97454.81;7374637;19;19923;-71
2023/03/06 01:57:22;;;;;;;;;;;;;;;2.49;75.54;97443.28;7374386;19;19954;-71
2023/03/06 01:59:51;;;;;;;;;;;;;;;2.50;75.29;97450.19;7372046;19;20371;-71
2023/03/06 02:02:18;;;;;;;;;;;;;;;2.47;75.09;97454.81;7366266;19;19922;-71
2023/03/06 02:04:44;;;;;;;;;;;;;;;2.51;75.37;97446.59;7373297;19;19930;-71
2023/03/06 02:07:11;;;;;;;;;;;;;;;2.52;75.48;97437.81;7366941;19;19950;-71
2023/03/06 02:09:38;;;;;;;;;;;;;;;2.52;75.41;97437.81;7377852;19;19915;-71
2023/03/06 02:12:05;;;;;;;;;;;;;;;2.50;75.53;97434.53;7369906;19;19923;-71
2023/03/06 02:14:32;;;;;;;;;;;;;;;2.49;75.54;97426.81;7372467;19;19919;-71
2023/03/06 02:16:59;;;;;;;;;;;;;;;2.49;75.41;97417.19;7370486;19;19910;-71
2023/03/06 02:19:35;;;;;;;;;;;;;;;2.48;75.56;97415.53;7372686;19;19974;-71
2023/03/06 02:22:02;;;;;;;;;;;;;;;2.48;75.93;97414.72;7368466;19;19919;-71
2023/03/06 02:24:34;;;;;;;;;;;;;;;2.45;75.88;97410.59;7371591;19;20635;-71
2023/03/06 02:27:02;;;;;;;;;;;;;;;2.44;75.89;97408.09;7369650;19;19923;-71
2023/03/06 02:29:29;;;;;;;;;;;;;;;2.42;75.91;97410.81;7374000;19;20387;-71
2023/03/06 02:31:59;;;;;;;;;;;;;;;2.37;75.41;97407.75;7368358;19;20559;-71
2023/03/06 02:34:25;;;;;;;;;;;;;;;2.36;75.21;97400.91;7370282;19;19923;-71
2023/03/06 02:37:12;;;;;;;;;;;;;;;2.37;75.34;97392.09;7372985;19;19922;-71
2023/03/06 02:39:40;;;;;;;;;;;;;;;2.36;75.69;97387.84;7376998;19;20658;-71
2023/03/06 02:42:07;;;;;;;;;;;;;;;2.36;75.64;97401.72;7368441;19;19925;-71
2023/03/06 02:44:33;;;;;;;;;;;;;;;2.35;75.60;97396.66;7370515;19;19950;-73
2023/03/06 02:47:00;;;;;;;;;;;;;;;2.35;75.71;97394.03;7368764;19;20347;-71
2023/03/06 02:49:27;;;;;;;;;;;;;;;2.35;75.65;97386.19;7371548;19;20371;-71
2023/03/06 02:51:53;;;;;;;;;;;;;;;2.36;75.65;97385.22;7368376;19;19933;-71
2023/03/06 02:54:20;;;;;;;;;;;;;;;2.35;75.71;97384.41;7367256;19;19919;-71
2023/03/06 02:56:46;;;;;;;;;;;;;;;2.33;75.66;97378.50;7373896;19;19986;-71
2023/03/06 02:59:13;;;;;;;;;;;;;;;2.33;75.89;97375.88;7373063;19;19923;-71
2023/03/06 03:01:39;;;;;;;;;;;;;;;2.35;75.86;97383.59;7374849;19;19936;-71
2023/03/06 03:04:06;;;;;;;;;;;;;;;2.34;75.49;97376.69;7369882;19;19994;-71
2023/03/06 03:06:33;;;;;;;;;;;;;;;2.35;75.52;97381.81;7373274;19;19919;-71
2023/03/06 03:09:00;;;;;;;;;;;;;;;2.36;75.61;97393.06;7367764;19;19929;-71
2023/03/06 03:11:27;;;;;;;;;;;;;;;2.36;75.65;97380.00;7373063;19;20626;-71
2023/03/06 03:13:54;;;;;;;;;;;;;;;2.36;75.49;97382.63;7374613;19;19929;-71
2023/03/06 03:16:22;;;;;;;;;;;;;;;2.35;75.41;97384.41;7367294;19;19970;-71
2023/03/06 03:18:52;;;;;;;;;;;;;;;2.34;75.40;97379.31;7374111;19;19927;-71
2023/03/06 03:21:21;;;;;;;;;;;;;;;2.30;75.45;97386.59;7366857;19;19923;-71
2023/03/06 03:23:47;;;;;;;;;;;;;;;2.25;75.23;97378.31;7369925;19;19987;-71
2023/03/06 03:26:15;;;;;;;;;;;;;;;2.20;74.85;97376.06;7366860;19;19934;-71
2023/03/06 03:28:47;;;;;;;;;;;;;;;2.25;75.10;97378.31;7373544;19;19932;-71
2023/03/06 03:31:17;;;;;;;;;;;;;;;2.26;75.33;97379.13;7370045;19;19922;-71
2023/03/06 03:33:43;;;;;;;;;;;;;;;2.25;75.34;97367.88;7379776;19;19939;-71
2023/03/06 03:36:11;;;;;;;;;;;;;;;2.25;75.36;97359.22;7373971;19;19919;-71
2023/03/06 03:38:41;;;;;;;;;;;;;;;2.28;75.51;97361.56;7378503;19;19946;-71
2023/03/06 03:41:07;;;;;;;;;;;;;;;2.29;75.17;97360.59;7372098;19;20291;-71
2023/03/06 03:43:34;;;;;;;;;;;;;;;2.25;75.07;97360.03;7376620;19;19919;-71
2023/03/06 03:46:01;;;;;;;;;;;;;;;2.28;74.76;97356.34;7378763;19;19923;-71
2023/03/06 03:48:27;;;;;;;;;;;;;;;2.17;72.92;97358.06;7376744;19;19922;-71
2023/03/06 03:51:00;;;;;;;;;;;;;;;2.23;71.67;97363.72;7376079;19;20529;-71
2023/03/06 03:53:27;;;;;;;;;;;;;;;2.23;70.89;97359.34;7376347;19;19914;-71
2023/03/06 03:55:54;;;;;;;;;;;;;;;2.18;71.69;97367.53;7376006;19;20367;-71
2023/03/06 03:58:20;;;;;;;;;;;;;;;2.21;72.39;97356.03;7372465;19;19923;-72
2023/03/06 04:00:48;;;;;;;;;;;;;;;2.26;73.02;97353.84;7377514;19;19982;-71
2023/03/06 04:03:14;;;;;;;;;;;;;;;2.06;72.55;97358.16;7370788;19;19938;-71
2023/03/06 04:05:43;;;;;;;;;;;;;;;2.03;73.63;97355.78;7370463;19;20283;-71
2023/03/06 04:08:12;;;;;;;;;;;;;;;2.02;72.51;97343.69;7372562;19;19937;-71
2023/03/06 04:10:41;;;;;;;;;;;;;;;1.96;71.40;97349.41;7378475;19;20371;-71
2023/03/06 04:13:10;;;;;;;;;;;;;;;2.01;72.13;97341.22;7375170;19;20356;-71
2023/03/06 04:15:40;;;;;;;;;;;;;;;2.09;72.18;97336.19;7375998;19;20362;-71
2023/03/06 04:18:07;;;;;;;;;;;;;;;2.12;72.35;97330.72;7373924;19;19936;-71
2023/03/06 04:20:34;;;;;;;;;;;;;;;2.14;73.06;97331.41;7377452;19;19922;-71
2023/03/06 04:23:02;;;;;;;;;;;;;;;2.19;73.49;97332.69;7374062;19;19986;-72
2023/03/06 04:25:30;;;;;;;;;;;;;;;2.14;73.77;97334.84;7377528;19;19918;-71
2023/03/06 04:27:58;;;;;;;;;;;;;;;2.17;74.05;97333.75;7380107;19;19921;-71
2023/03/06 04:30:26;;;;;;;;;;;;;;;2.19;74.32;97335.28;7370935;19;19927;-71
2023/03/06 04:32:53;;;;;;;;;;;;;;;2.19;74.34;97332.69;7376281;19;19937;-71
2023/03/06 04:35:19;;;;;;;;;;;;;;;2.20;74.71;97325.66;7368291;19;19925;-71
2023/03/06 04:38:00;;;;;;;;;;;;;;;2.18;74.79;97331.00;7376555;19;19926;-71
2023/03/06 04:40:29;;;;;;;;;;;;;;;2.16;74.61;97322.50;7370736;19;19925;-71
2023/03/06 04:42:56;;;;;;;;;;;;;;;2.25;74.37;97320.06;7376322;19;19911;-71
2023/03/06 04:45:23;;;;;;;;;;;;;;;2.34;74.28;97320.13;7369801;19;19923;-71
2023/03/06 04:47:50;;;;;;;;;;;;;;;2.36;74.36;97314.75;7376042;19;19918;-71
2023/03/06 04:50:16;;;;;;;;;;;;;;;2.34;73.80;97324.50;7369780;19;20255;-71
2023/03/06 04:52:43;;;;;;;;;;;;;;;2.33;73.90;97318.47;7375697;19;19939;-71
2023/03/06 04:55:11;;;;;;;;;;;;;;;2.34;74.09;97314.91;7371007;19;19922;-71
2023/03/06 04:57:38;;;;;;;;;;;;;;;2.34;74.45;97314.91;7380721;19;19939;-71
2023/03/06 05:00:07;;;;;;;;;;;;;;;2.36;74.37;97312.97;7378941;19;19934;-71
2023/03/06 05:02:34;;;;;;;;;;;;;;;2.37;74.38;97319.88;7376907;19;19952;-71
2023/03/06 05:05:01;;;;;;;;;;;;;;;2.37;74.37;97316.41;7376291;19;19914;-71
2023/03/06 05:07:27;;;;;;;;;;;;;;;2.38;74.42;97308.47;7377240;19;19922;-71
2023/03/06 05:09:54;;;;;;;;;;;;;;;2.40;74.57;97310.94;7383254;19;19922;-71
2023/03/06 05:12:20;;;;;;;;;;;;;;;2.39;74.35;97306.66;7374216;19;19919;-71
2023/03/06 05:14:47;;;;;;;;;;;;;;;2.38;74.52;97312.84;7377999;19;19923;-71
2023/03/06 05:17:13;;;;;;;;;;;;;;;2.37;74.22;97305.97;7375242;19;19914;-71
2023/03/06 05:19:40;;;;;;;;;;;;;;;2.37;74.14;97308.56;7379055;19;19927;-71
2023/03/06 05:22:06;;;;;;;;;;;;;;;2.35;74.51;97313.13;7376557;19;20409;-71
2023/03/06 05:24:33;;;;;;;;;;;;;;;2.36;74.39;97309.53;7377701;19;19923;-71
2023/03/06 05:27:00;;;;;;;;;;;;;;;2.35;74.29;97305.28;7378452;19;19970;-71
2023/03/06 05:29:26;;;;;;;;;;;;;;;2.24;74.11;97306.19;7374466;19;19923;-70
2023/03/06 05:31:53;;;;;;;;;;;;;;;2.26;73.99;97308.66;7377808;19;22295;-71
2023/03/06 05:34:20;;;;;;;;;;;;;;;2.20;73.87;97302.19;7369634;19;19931;-71
2023/03/06 05:36:46;;;;;;;;;;;;;;;2.19;74.39;97301.38;7372080;19;19939;-71
2023/03/06 05:39:13;;;;;;;;;;;;;;;2.10;73.99;97298.69;7370889;19;19941;-71
2023/03/06 05:41:39;;;;;;;;;;;;;;;2.12;74.41;97308.06;7379191;19;19927;-71
2023/03/06 05:44:06;;;;;;;;;;;;;;;2.10;74.72;97307.34;7376772;19;19915;-71
2023/03/06 05:46:32;;;;;;;;;;;;;;;2.08;74.64;97298.84;7370465;19;20517;-71
2023/03/06 05:48:59;;;;;;;;;;;;;;;2.07;74.50;97305.00;7377808;19;19923;-71
2023/03/06 05:51:25;;;;;;;;;;;;;;;2.08;74.93;97293.63;7370809;19;19919;-71
2023/03/06 05:53:52;;;;;;;;;;;;;;;2.12;75.34;97299.41;7369818;19;19925;-71
2023/03/06 05:56:20;;;;;;;;;;;;;;;2.14;75.26;97297.50;7369653;19;19935;-71
2023/03/06 05:58:47;;;;;;;;;;;;;;;2.16;75.09;97298.19;7376114;19;20315;-71
2023/03/06 06:01:15;;;;;;;;;;;;;;;2.18;75.14;97299.69;7369919;19;19925;-71
2023/03/06 06:03:42;;;;;;;;;;;;;;;2.18;75.28;97299.69;7373944;19;19990;-71
2023/03/06 06:06:09;;;;;;;;;;;;;;;2.19;75.27;97298.75;7373296;19;20275;-71
2023/03/06 06:08:36;;;;;;;;;;;;;;;2.23;75.54;97298.50;7372959;19;19942;-71
2023/03/06 06:11:05;;;;;;;;;;;;;;;2.23;75.80;97295.88;7375138;19;19919;-71
2023/03/06 06:13:32;;;;;;;;;;;;;;;2.20;75.93;97299.56;7367202;19;19918;-71
2023/03/06 06:15:59;;;;;;;;;;;;;;;2.29;75.75;97301.41;7369920;19;20364;-71
2023/03/06 06:18:25;;;;;;;;;;;;;;;2.34;75.75;97298.41;7368358;19;19945;-71
2023/03/06 06:20:52;;;;;;;;;;;;;;;2.35;74.98;97292.25;7375386;19;20355;-71
2023/03/06 06:23:21;;;;;;;;;;;;;;;2.41;75.18;97296.94;7363349;19;19918;-71
2023/03/06 06:25:47;;;;;;;;;;;;;;;2.47;75.17;97299.00;7369591;19;19923;-71
2023/03/06 06:28:14;;;;;;;;;;;;;;;2.50;75.05;97304.00;7362716;19;20269;-71
2023/03/06 06:30:40;;;;;;;;;;;;;;;2.50;75.15;97298.75;7377053;19;19919;-71
2023/03/06 06:33:07;;;;;;;;;;;;;;;2.51;75.00;97300.41;7368447;19;19943;-71
2023/03/06 06:35:34;;;;;;;;;;;;;;;2.47;74.73;97301.63;7367236;19;20406;-71
2023/03/06 06:38:01;;;;;;;;;;;;;;;2.54;74.95;97301.94;7371048;19;19918;-71
2023/03/06 06:40:28;;;;;;;;;;;;;;;2.53;74.67;97303.72;7355780;19;19926;-71
2023/03/06 06:42:54;;;;;;;;;;;;;;;2.60;74.94;97304.00;7364959;19;20267;-71
2023/03/06 06:45:21;;;;;;;;;;;;;;;2.56;74.66;97300.84;7367716;19;19926;-71
2023/03/06 06:47:48;;;;;;;;;;;;;;;2.54;74.51;97297.53;7375365;19;20352;-71
2023/03/06 06:50:15;;;;;;;;;;;;;;;2.63;74.37;97301.97;7365371;19;19911;-71
2023/03/06 06:52:42;;;;;;;;;;;;;;;2.66;74.54;97303.50;7369294;19;19907;-71
2023/03/06 06:55:08;;;;;;;;;;;;;;;2.74;74.36;97302.81;7375823;19;20295;-71
2023/03/06 06:57:35;;;;;;;;;;;;;;;2.63;73.48;97308.97;7368205;19;19923;-71
2023/03/06 07:00:02;;;;;;;;;;;;;;;2.58;74.24;97305.91;7373488;19;19919;-71
2023/03/06 07:02:31;;;;;;;;;;;;;;;2.66;74.02;97308.72;7369059;19;19942;-71
2023/03/06 07:04:57;;;;;;;;;;;;;;;2.80;74.43;97305.72;7372292;19;19926;-71
2023/03/06 07:07:35;;;;;;;;;;;;;;;2.89;74.24;97306.69;7374323;19;19919;-71
2023/03/06 07:10:04;;;;;;;;;;;;;;;2.97;74.25;97311.25;7381917;19;19921;-71
2023/03/06 07:12:31;;;;;;;;;;;;;;;3.02;74.07;97307.28;7372685;19;19926;-71
2023/03/06 07:14:58;;;;;;;;;;;;;;;3.01;73.71;97305.63;7376682;19;19918;-71
2023/03/06 07:17:25;;;;;;;;;;;;;;;3.07;73.75;97310.31;7376436;19;20370;-71
2023/03/06 07:19:51;;;;;;;;;;;;;;;3.11;73.11;97308.28;7381549;19;19923;-71
2023/03/06 07:22:18;;;;;;;;;;;;;;;3.04;73.22;97307.97;7373359;19;19922;-71
2023/03/06 07:24:45;;;;;;;;;;;;;;;3.08;72.60;97311.97;7376777;19;19922;-71
2023/03/06 07:27:11;;;;;;;;;;;;;;;3.14;72.36;97313.22;7378041;19;19923;-71
2023/03/06 07:29:38;;;;;;;;;;;;;;;3.22;72.48;97316.00;7372861;19;19933;-71
2023/03/06 07:32:04;;;;;;;;;;;;;;;3.31;72.32;97319.56;7376314;19;19938;-71
2023/03/06 07:34:31;;;;;;;;;;;;;;;3.35;71.98;97322.75;7370043;19;19927;-71
2023/03/06 07:36:58;;;;;;;;;;;;;;;3.39;72.15;97317.09;7378401;19;20332;-71
2023/03/06 07:39:24;;;;;;;;;;;;;;;3.29;72.86;97324.09;7370321;19;20276;-71
2023/03/06 07:41:52;;;;;;;;;;;;;;;3.28;73.19;97323.28;7377428;19;19922;-71
2023/03/06 07:44:19;;;;;;;;;;;;;;;3.29;73.21;97326.72;7374568;19;19918;-71
2023/03/06 07:46:45;;;;;;;;;;;;;;;3.36;73.00;97329.63;7376404;19;19942;-71
2023/03/06 07:49:12;;;;;;;;;;;;;;;3.23;70.22;97330.69;7379660;19;19922;-71
2023/03/06 07:51:38;;;;;;;;;;;;;;;3.20;69.33;97335.38;7373303;19;19934;-71
2023/03/06 07:54:05;;;;;;;;;;;;;;;3.25;68.87;97339.22;7375371;19;19946;-71
2023/03/06 07:56:33;;;;;;;;;;;;;;;3.32;68.72;97336.91;7374294;19;19923;-71
2023/03/06 07:59:00;;;;;;;;;;;;;;;3.27;68.12;97334.72;7376208;19;20270;-71
2023/03/06 08:01:26;;;;;;;;;;;;;;;3.26;67.46;97337.44;7373827;19;19960;-71
2023/03/06 08:03:53;;;;;;;;;;;;;;;3.48;67.84;97336.38;7377678;19;19919;-71
2023/03/06 08:06:21;;;;;;;;;;;;;;;3.62;67.86;97343.81;7372606;19;20018;-71
2023/03/06 08:08:48;;;;;;;;;;;;;;;3.72;67.20;97341.22;7374835;19;19942;-71
2023/03/06 08:11:15;;;;;;;;;;;;;;;3.81;66.69;97342.97;7376033;19;19923;-71
2023/03/06 08:13:42;;;;;;;;;;;;;;;3.79;65.02;97333.63;7367660;19;19923;-71
2023/03/06 08:16:08;;;;;;;;;;;;;;;3.89;65.27;97340.50;7373419;19;19925;-71
2023/03/06 08:18:36;;;;;;;;;;;;;;;3.88;65.02;97335.41;7367480;19;19971;-71
2023/03/06 08:21:04;;;;;;;;;;;;;;;3.95;65.49;97342.56;7377064;19;19939;-71
2023/03/06 08:23:31;;;;;;;;;;;;;;;3.84;64.82;97341.88;7372066;19;19919;-71
2023/03/06 08:25:57;;;;;;;;;;;;;;;3.74;64.89;97339.28;7379802;19;20344;-71
2023/03/06 08:28:24;;;;;;;;;;;;;;;3.94;64.82;97338.28;7374413;19;19927;-72
2023/03/06 08:30:51;;;;;;;;;;;;;;;4.20;65.54;97332.47;7381833;19;19934;-72
2023/03/06 08:33:17;;;;;;;;;;;;;;;4.32;64.88;97336.56;7382183;19;19938;-72
2023/03/06 08:35:44;;;;;;;;;;;;;;;4.51;65.28;97334.88;7375762;19;20282;-72
2023/03/06 08:38:10;;;;;;;;;;;;;;;4.58;64.64;97333.31;7378059;19;19937;-72
2023/03/06 08:40:37;;;;;;;;;;;;;;;4.22;64.50;97340.19;7374700;19;19922;-72
2023/03/06 08:43:03;;;;;;;;;;;;;;;4.28;63.40;97339.63;7382374;19;19942;-72
2023/03/06 08:45:30;;;;;;;;;;;;;;;4.56;64.27;97337.88;7373808;19;19927;-72
2023/03/06 08:47:56;;;;;;;;;;;;;;;4.62;63.62;97337.31;7381556;19;19915;-72
2023/03/06 08:50:23;;;;;;;;;;;;;;;4.84;64.61;97341.34;7376495;19;19919;-72
2023/03/06 08:52:50;;;;;;;;;;;;;;;4.78;63.42;97339.31;7375970;19;19919;-72
2023/03/06 08:55:16;;;;;;;;;;;;;;;4.69;63.92;97343.63;7373999;19;19927;-72
2023/03/06 08:57:42;;;;;;;;;;;;;;;4.48;64.44;97338.59;7375480;19;19914;-71
2023/03/06 09:00:09;;;;;;;;;;;;;;;4.39;64.79;97345.50;7380387;19;19935;-72
2023/03/06 09:02:36;;;;;;;;;;;;;;;4.21;65.04;97343.75;7375049;19;19962;-72
2023/03/06 09:05:03;;;;;;;;;;;;;;;4.13;65.54;97349.69;7378084;19;19930;-72
2023/03/06 09:07:30;;;;;;;;;;;;;;;4.22;65.32;97343.63;7375557;19;19940;-72
2023/03/06 09:09:57;;;;;;;;;;;;;;;4.55;65.21;97344.06;7378394;19;19946;-72
2023/03/06 09:12:23;;;;;;;;;;;;;;;4.57;64.72;97350.00;7372277;19;19930;-72
2023/03/06 09:14:50;;;;;;;;;;;;;;;4.49;65.07;97352.50;7377761;19;19911;-72
2023/03/06 09:17:16;;;;;;;;;;;;;;;4.77;65.35;97346.34;7374406;19;19939;-72
2023/03/06 09:19:43;;;;;;;;;;;;;;;5.00;63.78;97349.41;7370292;19;20002;-72
2023/03/06 09:22:09;;;;;;;;;;;;;;;5.13;64.03;97348.22;7374061;19;19921;-72
2023/03/06 09:24:36;;;;;;;;;;;;;;;5.13;63.78;97350.84;7368372;19;19926;-72
2023/03/06 09:27:03;;;;;;;;;;;;;;;4.99;63.56;97345.13;7376853;19;19922;-72
2023/03/06 09:29:29;;;;;;;;;;;;;;;4.58;63.39;97347.25;7371943;19;19927;-72
2023/03/06 09:31:56;;;;;;;;;;;;;;;4.74;63.57;97351.88;7379983;19;19947;-72
2023/03/06 09:34:22;;;;;;;;;;;;;;;4.71;64.05;97352.13;7375649;19;19926;-72
2023/03/06 09:36:49;;;;;;;;;;;;;;;4.50;64.42;97346.28;7377580;19;19919;-72
2023/03/06 09:39:23;;;;;;;;;;;;;;;4.62;64.45;97350.41;7375381;19;20481;-72
2023/03/06 09:41:49;;;;;;;;;;;;;;;4.51;65.21;97355.81;7371469;19;19919;-72
2023/03/06 09:44:17;;;;;;;;;;;;;;;4.68;64.78;97351.63;7373057;19;19919;-71
2023/03/06 09:46:59;;;;;;;;;;;;;;;4.67;64.32;97350.78;7369238;19;20362;-72
2023/03/06 09:49:41;;;;;;;;;;;;;;;4.78;64.59;97362.88;7372360;19;20305;-72
2023/03/06 09:52:27;;;;;;;;;;;;;;;4.50;65.16;97346.28;7375349;19;20259;-72
2023/03/06 09:54:54;;;;;;;;;;;;;;;4.39;65.05;97353.34;7375137;19;19927;-72
2023/03/06 09:57:25;;;;;;;;;;;;;;;4.24;64.95;97352.16;7373344;19;19919;-71
2023/03/06 09:59:54;;;;;;;;;;;;;;;4.25;65.90;97353.00;7371692;19;19919;-72
2023/03/06 10:02:20;;;;;;;;;;;;;;;4.10;66.09;97363.06;7372773;19;20333;-72
2023/03/06 10:04:49;;;;;;;;;;;;;;;4.00;66.96;97347.38;7369474;19;19955;-72
2023/03/06 10:07:15;;;;;;;;;;;;;;;4.29;67.05;97351.72;7375668;19;19936;-72
2023/03/06 10:10:02;;;;;;;;;;;;;;;4.49;66.49;97355.13;7367948;19;19919;-72
2023/03/06 10:12:37;;;;;;;;;;;;;;;4.53;65.96;97353.88;7369531;19;19922;-71
2023/03/06 10:15:03;;;;;;;;;;;;;;;4.49;65.82;97357.75;7372348;19;19927;-72
2023/03/06 10:17:32;;;;;;;;;;;;;;;4.50;65.40;97355.00;7369779;19;19935;-72
2023/03/06 10:20:00;;;;;;;;;;;;;;;4.73;65.61;97360.69;7375574;19;19918;-71
2023/03/06 10:22:32;;;;;;;;;;;;;;;4.70;65.57;97358.38;7367177;19;19918;-71
2023/03/06 10:25:34;;;;;;;;;;;;;;;4.68;64.60;97355.06;7374049;19;20263;-72
2023/03/06 10:28:17;;;;;;;;;;;;;;;4.73;65.34;97355.44;7368025;19;19919;-72
2023/03/06 10:30:49;;;;;;;;;;;;;;;4.92;64.70;97359.78;7371538;19;19999;-72
2023/03/06 10:33:15;;;;;;;;;;;;;;;5.11;64.44;97358.03;7371152;19;19911;-72
2023/03/06 10:35:45;;;;;;;;;;;;;;;5.13;63.79;97356.91;7369332;19;19940;-72
2023/03/06 10:38:18;;;;;;;;;;;;;;;4.67;64.19;97352.59;7377282;19;19922;-72
2023/03/06 10:40:50;;;;;;;;;;;;;;;4.62;64.52;97353.84;7371520;19;20415;-72
2023/03/06 10:43:17;;;;;;;;;;;;;;;4.61;64.36;97356.63;7374176;19;19919;-72
2023/03/06 10:45:45;;;;;;;;;;;;;;;4.72;64.67;97358.22;7364391;19;19929;-72
2023/03/06 10:48:16;;;;;;;;;;;;;;;4.70;63.99;97360.97;7377310;19;19919;-72
2023/03/06 10:50:43;;;;;;;;;;;;;;;4.75;63.76;97358.75;7366892;19;19919;-71
2023/03/06 10:53:18;;;;;;;;;;;;;;;4.63;63.61;97359.91;7373526;19;19942;-71
2023/03/06 10:55:57;;;;;;;;;;;;;;;4.72;63.55;97353.81;7367615;19;19942;-72
2023/03/06 10:58:25;;;;;;;;;;;;;;;4.85;63.19;97361.34;7376946;19;19931;-72
2023/03/06 11:01:07;;;;;;;;;;;;;;;4.91;63.25;97358.13;7367744;19;19922;-71
2023/03/06 11:03:35;;;;;;;;;;;;;;;4.96;63.09;97355.09;7370337;19;19926;-72
2023/03/06 11:06:01;;;;;;;;;;;;;;;4.94;63.03;97352.59;7371801;19;19950;-72
2023/03/06 11:08:28;;;;;;;;;;;;;;;5.17;62.42;97347.78;7370567;19;19915;-72
2023/03/06 11:10:56;;;;;;;;;;;;;;;5.00;61.34;97351.19;7374009;19;19942;-72
2023/03/06 11:13:24;;;;;;;;;;;;;;;5.00;61.42;97343.31;7374356;19;19930;-71
2023/03/06 11:16:01;;;;;;;;;;;;;;;5.24;61.46;97348.88;7364692;19;19918;-71
2023/03/06 11:18:47;;;;;;;;;;;;;;;5.20;60.18;97346.69;7376114;19;19915;-71
2023/03/06 11:21:25;;;;;;;;;;;;;;;5.18;60.28;97344.19;7375374;19;19922;-72
2023/03/06 11:23:51;;;;;;;;;;;;;;;5.52;59.96;97343.56;7364290;19;20314;-72
2023/03/06 11:26:29;;;;;;;;;;;;;;;5.51;59.51;97344.56;7372604;19;19931;-72
2023/03/06 11:28:59;;;;;;;;;;;;;;;5.56;58.52;97341.47;7370963;19;19926;-72
2023/03/06 11:31:27;;;;;;;;;;;;;;;5.85;58.64;97336.00;7370025;19;20303;-72
2023/03/06 11:33:57;;;;;;;;;;;;;;;5.71;58.24;97339.97;7363664;19;19926;-71
2023/03/06 11:36:25;;;;;;;;;;;;;;;6.02;56.89;97329.91;7374391;19;19935;-72
2023/03/06 11:38:52;;;;;;;;;;;;;;;5.86;56.30;97329.75;7370020;19;19931;-72
2023/03/06 11:41:30;;;;;;;;;;;;;;;5.84;56.36;97329.91;7376786;19;19925;-72
2023/03/06 11:44:14;;;;;;;;;;;;;;;5.73;57.08;97333.59;7373990;19;19919;-72
2023/03/06 11:46:47;;;;;;;;;;;;;;;5.64;56.96;97324.00;7364352;19;19918;-72
2023/03/06 11:49:25;;;;;;;;;;;;;;;5.54;56.98;97318.00;7368943;19;19986;-71
2023/03/06 11:51:53;;;;;;;;;;;;;;;5.80;56.89;97309.38;7365016;19;20525;-72
2023/03/06 11:54:20;;;;;;;;;;;;;;;5.86;56.55;97311.41;7378875;19;20288;-71
2023/03/06 11:57:05;;;;;;;;;;;;;;;5.69;56.75;97300.78;7375954;19;19914;-71
2023/03/06 11:59:41;;;;;;;;;;;;;;;5.82;57.54;97302.16;7380588;19;20236;-72
2023/03/06 12:02:16;;;;;;;;;;;;;;;6.10;56.42;97295.84;7383580;19;20383;-71
2023/03/06 12:04:52;;;;;;;;;;;;;;;5.95;56.18;97300.03;7373026;19;20326;-72
2023/03/06 12:07:19;;;;;;;;;;;;;;;5.90;56.26;97297.81;7382896;19;19925;-72
2023/03/06 12:10:04;;;;;;;;;;;;;;;5.89;55.46;97295.34;7378000;19;19919;-71
2023/03/06 12:12:50;;;;;;;;;;;;;;;6.08;54.46;97286.47;7382085;19;20658;-71
2023/03/06 12:15:19;;;;;;;;;;;;;;;6.24;54.91;97291.00;7382513;19;19941;-72
2023/03/06 12:17:55;;;;;;;;;;;;;;;6.41;55.37;97287.50;7377821;19;19923;-71
2023/03/06 12:20:24;;;;;;;;;;;;;;;6.48;54.36;97279.81;7384851;19;19927;-72
2023/03/06 12:22:57;;;;;;;;;;;;;;;6.29;54.30;97283.47;7375201;19;19948;-72
2023/03/06 12:25:43;;;;;;;;;;;;;;;6.31;54.73;97282.34;7371278;19;19916;-72
2023/03/06 12:28:13;;;;;;;;;;;;;;;5.97;54.36;97286.72;7379070;19;19919;-71
2023/03/06 12:30:48;;;;;;;;;;;;;;;5.76;54.94;97279.97;7375376;19;19922;-72
2023/03/06 12:33:33;;;;;;;;;;;;;;;6.15;54.99;97277.00;7381471;19;20379;-72
2023/03/06 12:36:03;;;;;;;;;;;;;;;6.37;54.28;97281.75;7376781;19;19926;-72
2023/03/06 12:38:32;;;;;;;;;;;;;;;6.60;53.73;97275.94;7380041;19;19922;-72
2023/03/06 12:41:01;;;;;;;;;;;;;;;6.24;53.64;97272.63;7377116;19;19918;-72
2023/03/06 12:43:33;;;;;;;;;;;;;;;6.28;54.64;97276.59;7379882;19;19921;-71
2023/03/06 12:46:01;;;;;;;;;;;;;;;6.27;55.04;97277.59;7370323;19;20006;-72
2023/03/06 12:48:29;;;;;;;;;;;;;;;5.82;56.30;97268.03;7378734;19;19926;-72
2023/03/06 12:50:56;;;;;;;;;;;;;;;5.66;57.43;97274.84;7372930;19;20485;-71
2023/03/06 12:53:27;;;;;;;;;;;;;;;5.38;58.75;97283.75;7372914;19;20458;-72
2023/03/06 12:55:54;;;;;;;;;;;;;;;5.30;60.35;97270.59;7366917;19;20247;-72
2023/03/06 12:58:29;;;;;;;;;;;;;;;5.34;61.09;97277.16;7379302;19;19919;-72
2023/03/06 13:00:57;;;;;;;;;;;;;;;5.38;63.66;97278.53;7375122;19;20971;-72
2023/03/06 13:03:48;;;;;;;;;;;;;;;5.24;62.44;97270.19;7378478;19;19946;-72
2023/03/06 13:06:33;;;;;;;;;;;;;;;5.68;63.33;97265.00;7380149;19;19919;-72